sensor_id;sensor_type;location;lat;lon;timestamp;temperature;humidity
26378;DHT22;14078;50.974;6.786;2022-11-18T00:00:26;9.10;99.90
26378;DHT22;14078;50.974;6.786;2022-11-18T00:02:54;9.10;99.90
26378;DHT22;14078;50.974;6.786;2022-11-18T00:05:20;9.10;99.90
26378;DHT22;14078;50.974;6.786;2022-11-18T00:07:47;9.10;99.90
26378;DHT22;14078;50.974;6.786;2022-11-18T00:10:13;9.10;99.90
26378;DHT22;14078;50.974;6.786;2022-11-18T00:12:40;9.10;99.90
26378;DHT22;14078;50.974;6.786;2022-11-18T00:15:26;9.20;99.90
26378;DHT22;14078;50.974;6.786;2022-11-18T00:17:53;9.20;99.90
26378;DHT22;14078;50.974;6.786;2022-11-18T00:20:20;9.20;99.90
26378;DHT22;14078;50.974;6.786;2022-11-18T00:22:46;9.20;99.90
26378;DHT22;14078;50.974;6.786;2022-11-18T00:25:13;9.20;99.90
26378;DHT22;14078;50.974;6.786;2022-11-18T00:27:40;9.20;99.90
26378;DHT22;14078;50.974;6.786;2022-11-18T00:30:07;9.20;99.90
26378;DHT22;14078;50.974;6.786;2022-11-18T00:32:33;9.30;99.90
26378;DHT22;14078;50.974;6.786;2022-11-18T00:35:01;9.30;99.90
26378;DHT22;14078;50.974;6.786;2022-11-18T00:37:28;9.30;99.90
26378;DHT22;14078;50.974;6.786;2022-11-18T00:39:54;9.30;99.90
26378;DHT22;14078;50.974;6.786;2022-11-18T00:42:21;9.40;99.90
26378;DHT22;14078;50.974;6.786;2022-11-18T00:45:05;9.30;99.90
26378;DHT22;14078;50.974;6.786;2022-11-18T00:47:32;9.30;99.90
26378;DHT22;14078;50.974;6.786;2022-11-18T00:49:58;9.30;99.90
26378;DHT22;14078;50.974;6.786;2022-11-18T00:52:26;9.30;99.90
26378;DHT22;14078;50.974;6.786;2022-11-18T00:54:53;9.20;99.90
26378;DHT22;14078;50.974;6.786;2022-11-18T00:57:19;9.20;99.90
26378;DHT22;14078;50.974;6.786;2022-11-18T00:59:46;9.10;99.90
26378;DHT22;14078;50.974;6.786;2022-11-18T01:02:12;9.10;99.90
26378;DHT22;14078;50.974;6.786;2022-11-18T01:04:39;9.10;99.90
26378;DHT22;14078;50.974;6.786;2022-11-18T01:07:05;9.20;99.90
26378;DHT22;14078;50.974;6.786;2022-11-18T01:09:33;9.10;99.90
26378;DHT22;14078;50.974;6.786;2022-11-18T01:11:59;9.20;99.90
26378;DHT22;14078;50.974;6.786;2022-11-18T01:14:44;9.10;99.90
26378;DHT22;14078;50.974;6.786;2022-11-18T01:17:10;9.20;99.90
26378;DHT22;14078;50.974;6.786;2022-11-18T01:19:37;9.20;99.90
26378;DHT22;14078;50.974;6.786;2022-11-18T01:22:03;9.20;99.90
26378;DHT22;14078;50.974;6.786;2022-11-18T01:24:30;9.30;99.90
26378;DHT22;14078;50.974;6.786;2022-11-18T01:26:59;9.30;99.90
26378;DHT22;14078;50.974;6.786;2022-11-18T01:29:25;9.20;99.90
26378;DHT22;14078;50.974;6.786;2022-11-18T01:31:52;9.20;99.90
26378;DHT22;14078;50.974;6.786;2022-11-18T01:34:18;9.30;99.90
26378;DHT22;14078;50.974;6.786;2022-11-18T01:36:45;9.30;99.90
26378;DHT22;14078;50.974;6.786;2022-11-18T01:39:11;9.30;99.90
26378;DHT22;14078;50.974;6.786;2022-11-18T01:41:38;9.30;99.90
26378;DHT22;14078;50.974;6.786;2022-11-18T01:46:47;9.30;99.90
26378;DHT22;14078;50.974;6.786;2022-11-18T01:49:13;9.30;99.90
26378;DHT22;14078;50.974;6.786;2022-11-18T01:51:41;9.30;99.90
26378;DHT22;14078;50.974;6.786;2022-11-18T01:54:11;9.30;99.90
26378;DHT22;14078;50.974;6.786;2022-11-18T01:56:43;9.30;99.90
26378;DHT22;14078;50.974;6.786;2022-11-18T01:59:10;9.30;99.90
26378;DHT22;14078;50.974;6.786;2022-11-18T02:01:38;9.20;99.90
26378;DHT22;14078;50.974;6.786;2022-11-18T02:04:06;9.20;99.90
26378;DHT22;14078;50.974;6.786;2022-11-18T02:06:34;9.20;99.90
26378;DHT22;14078;50.974;6.786;2022-11-18T02:09:01;9.20;99.90
26378;DHT22;14078;50.974;6.786;2022-11-18T02:11:28;9.30;99.90
26378;DHT22;14078;50.974;6.786;2022-11-18T02:14:13;9.30;99.90
26378;DHT22;14078;50.974;6.786;2022-11-18T02:16:44;9.40;99.90
26378;DHT22;14078;50.974;6.786;2022-11-18T02:19:21;9.50;99.90
26378;DHT22;14078;50.974;6.786;2022-11-18T02:21:53;9.50;99.90
26378;DHT22;14078;50.974;6.786;2022-11-18T02:24:27;9.60;99.90
26378;DHT22;14078;50.974;6.786;2022-11-18T02:27:12;9.70;99.90
26378;DHT22;14078;50.974;6.786;2022-11-18T02:29:46;9.70;99.90
26378;DHT22;14078;50.974;6.786;2022-11-18T02:32:16;9.60;99.90
26378;DHT22;14078;50.974;6.786;2022-11-18T02:34:46;9.60;99.90
26378;DHT22;14078;50.974;6.786;2022-11-18T02:37:15;9.60;99.90
26378;DHT22;14078;50.974;6.786;2022-11-18T02:39:43;9.60;99.90
26378;DHT22;14078;50.974;6.786;2022-11-18T02:42:11;9.50;99.90
26378;DHT22;14078;50.974;6.786;2022-11-18T02:44:41;9.40;99.90
26378;DHT22;14078;50.974;6.786;2022-11-18T02:47:11;9.30;99.90
26378;DHT22;14078;50.974;6.786;2022-11-18T02:49:40;9.30;99.90
26378;DHT22;14078;50.974;6.786;2022-11-18T02:52:07;9.30;99.90
26378;DHT22;14078;50.974;6.786;2022-11-18T02:54:35;9.30;99.90
26378;DHT22;14078;50.974;6.786;2022-11-18T02:57:03;9.30;99.90
26378;DHT22;14078;50.974;6.786;2022-11-18T02:59:30;9.40;99.90
26378;DHT22;14078;50.974;6.786;2022-11-18T03:01:56;9.50;99.90
26378;DHT22;14078;50.974;6.786;2022-11-18T03:04:24;9.60;99.90
26378;DHT22;14078;50.974;6.786;2022-11-18T03:06:53;9.60;99.90
26378;DHT22;14078;50.974;6.786;2022-11-18T03:09:23;9.70;99.90
26378;DHT22;14078;50.974;6.786;2022-11-18T03:11:53;9.70;99.90
26378;DHT22;14078;50.974;6.786;2022-11-18T03:14:23;9.60;99.90
26378;DHT22;14078;50.974;6.786;2022-11-18T03:16:55;9.50;99.90
26378;DHT22;14078;50.974;6.786;2022-11-18T03:19:26;9.40;99.90
26378;DHT22;14078;50.974;6.786;2022-11-18T03:21:55;9.40;99.90
26378;DHT22;14078;50.974;6.786;2022-11-18T03:24:23;9.40;99.90
26378;DHT22;14078;50.974;6.786;2022-11-18T03:26:52;9.40;99.90
26378;DHT22;14078;50.974;6.786;2022-11-18T03:29:22;9.40;99.90
26378;DHT22;14078;50.974;6.786;2022-11-18T03:31:51;9.30;99.90
26378;DHT22;14078;50.974;6.786;2022-11-18T03:34:20;9.30;99.90
26378;DHT22;14078;50.974;6.786;2022-11-18T03:36:49;9.30;99.90
26378;DHT22;14078;50.974;6.786;2022-11-18T03:39:17;9.30;99.90
26378;DHT22;14078;50.974;6.786;2022-11-18T03:41:47;9.20;99.90
26378;DHT22;14078;50.974;6.786;2022-11-18T03:44:16;9.20;99.90
26378;DHT22;14078;50.974;6.786;2022-11-18T03:46:44;9.20;99.90
26378;DHT22;14078;50.974;6.786;2022-11-18T03:49:13;9.20;99.90
26378;DHT22;14078;50.974;6.786;2022-11-18T03:51:43;9.30;99.90
26378;DHT22;14078;50.974;6.786;2022-11-18T03:54:14;9.30;99.90
26378;DHT22;14078;50.974;6.786;2022-11-18T03:56:42;9.40;99.90
26378;DHT22;14078;50.974;6.786;2022-11-18T03:59:11;9.40;99.90
26378;DHT22;14078;50.974;6.786;2022-11-18T04:01:39;9.50;99.90
26378;DHT22;14078;50.974;6.786;2022-11-18T04:04:06;9.50;99.90
26378;DHT22;14078;50.974;6.786;2022-11-18T04:06:35;9.50;99.90
26378;DHT22;14078;50.974;6.786;2022-11-18T04:09:05;9.50;99.90
26378;DHT22;14078;50.974;6.786;2022-11-18T04:11:35;9.50;99.90
26378;DHT22;14078;50.974;6.786;2022-11-18T04:14:23;9.40;99.90
26378;DHT22;14078;50.974;6.786;2022-11-18T04:16:51;9.50;99.90
26378;DHT22;14078;50.974;6.786;2022-11-18T04:19:18;9.60;99.90
26378;DHT22;14078;50.974;6.786;2022-11-18T04:21:44;9.60;99.90
26378;DHT22;14078;50.974;6.786;2022-11-18T04:24:11;9.60;99.90
26378;DHT22;14078;50.974;6.786;2022-11-18T04:26:39;9.60;99.90
26378;DHT22;14078;50.974;6.786;2022-11-18T04:29:05;9.70;99.90
26378;DHT22;14078;50.974;6.786;2022-11-18T04:31:32;9.80;99.90
26378;DHT22;14078;50.974;6.786;2022-11-18T04:33:58;9.90;99.90
26378;DHT22;14078;50.974;6.786;2022-11-18T04:36:25;9.90;99.90
26378;DHT22;14078;50.974;6.786;2022-11-18T04:38:51;9.80;99.90
26378;DHT22;14078;50.974;6.786;2022-11-18T04:41:18;9.70;99.90
26378;DHT22;14078;50.974;6.786;2022-11-18T04:43:46;9.70;99.90
26378;DHT22;14078;50.974;6.786;2022-11-18T04:46:12;9.70;99.90
26378;DHT22;14078;50.974;6.786;2022-11-18T04:48:39;9.70;99.90
26378;DHT22;14078;50.974;6.786;2022-11-18T04:51:05;9.60;99.90
26378;DHT22;14078;50.974;6.786;2022-11-18T04:53:32;9.70;99.90
26378;DHT22;14078;50.974;6.786;2022-11-18T04:56:03;9.70;99.90
26378;DHT22;14078;50.974;6.786;2022-11-18T04:58:29;9.60;99.90
26378;DHT22;14078;50.974;6.786;2022-11-18T05:00:57;9.70;99.90
26378;DHT22;14078;50.974;6.786;2022-11-18T05:03:24;9.50;99.90
26378;DHT22;14078;50.974;6.786;2022-11-18T05:05:50;9.40;99.90
26378;DHT22;14078;50.974;6.786;2022-11-18T05:08:17;9.30;99.90
26378;DHT22;14078;50.974;6.786;2022-11-18T05:10:43;9.30;99.90
26378;DHT22;14078;50.974;6.786;2022-11-18T05:13:11;9.40;99.90
26378;DHT22;14078;50.974;6.786;2022-11-18T05:15:37;9.40;99.90
26378;DHT22;14078;50.974;6.786;2022-11-18T05:18:04;9.30;99.90
26378;DHT22;14078;50.974;6.786;2022-11-18T05:20:31;9.30;99.90
26378;DHT22;14078;50.974;6.786;2022-11-18T05:22:57;9.20;99.90
26378;DHT22;14078;50.974;6.786;2022-11-18T05:25:24;9.20;99.90
26378;DHT22;14078;50.974;6.786;2022-11-18T05:27:50;9.10;99.90
26378;DHT22;14078;50.974;6.786;2022-11-18T05:30:17;9.00;99.90
26378;DHT22;14078;50.974;6.786;2022-11-18T05:32:43;9.10;99.90
26378;DHT22;14078;50.974;6.786;2022-11-18T05:35:11;9.10;99.90
26378;DHT22;14078;50.974;6.786;2022-11-18T05:37:38;9.20;99.90
26378;DHT22;14078;50.974;6.786;2022-11-18T05:40:05;9.20;99.90
26378;DHT22;14078;50.974;6.786;2022-11-18T05:42:32;9.00;99.90
26378;DHT22;14078;50.974;6.786;2022-11-18T05:45:16;8.90;99.90
26378;DHT22;14078;50.974;6.786;2022-11-18T05:47:43;8.70;99.90
26378;DHT22;14078;50.974;6.786;2022-11-18T05:50:40;8.60;99.90
26378;DHT22;14078;50.974;6.786;2022-11-18T05:53:07;8.70;99.90
26378;DHT22;14078;50.974;6.786;2022-11-18T05:55:34;8.70;99.90
26378;DHT22;14078;50.974;6.786;2022-11-18T05:58:02;8.70;99.90
26378;DHT22;14078;50.974;6.786;2022-11-18T06:00:29;8.90;99.90
26378;DHT22;14078;50.974;6.786;2022-11-18T06:02:56;8.80;99.90
26378;DHT22;14078;50.974;6.786;2022-11-18T06:05:23;8.80;99.90
26378;DHT22;14078;50.974;6.786;2022-11-18T06:07:52;8.70;99.90
26378;DHT22;14078;50.974;6.786;2022-11-18T06:10:20;8.80;99.90
26378;DHT22;14078;50.974;6.786;2022-11-18T06:12:48;8.90;99.90
26378;DHT22;14078;50.974;6.786;2022-11-18T06:15:17;9.00;99.90
26378;DHT22;14078;50.974;6.786;2022-11-18T06:17:47;9.00;99.90
26378;DHT22;14078;50.974;6.786;2022-11-18T06:20:16;9.10;99.90
26378;DHT22;14078;50.974;6.786;2022-11-18T06:22:42;9.10;99.90
26378;DHT22;14078;50.974;6.786;2022-11-18T06:25:10;9.00;99.90
26378;DHT22;14078;50.974;6.786;2022-11-18T06:27:36;8.90;99.90
26378;DHT22;14078;50.974;6.786;2022-11-18T06:30:03;8.90;99.90
26378;DHT22;14078;50.974;6.786;2022-11-18T06:32:30;8.90;99.90
26378;DHT22;14078;50.974;6.786;2022-11-18T06:34:57;8.90;99.90
26378;DHT22;14078;50.974;6.786;2022-11-18T06:37:23;9.00;99.90
26378;DHT22;14078;50.974;6.786;2022-11-18T06:39:50;9.00;99.90
26378;DHT22;14078;50.974;6.786;2022-11-18T06:42:17;9.00;99.90
26378;DHT22;14078;50.974;6.786;2022-11-18T06:44:58;9.00;99.90
26378;DHT22;14078;50.974;6.786;2022-11-18T06:47:26;9.00;99.90
26378;DHT22;14078;50.974;6.786;2022-11-18T06:49:52;8.90;99.90
26378;DHT22;14078;50.974;6.786;2022-11-18T06:52:20;8.80;99.90
26378;DHT22;14078;50.974;6.786;2022-11-18T06:54:46;8.70;99.90
26378;DHT22;14078;50.974;6.786;2022-11-18T06:57:13;8.50;99.90
26378;DHT22;14078;50.974;6.786;2022-11-18T06:59:41;8.40;99.90
26378;DHT22;14078;50.974;6.786;2022-11-18T07:02:07;8.30;99.90
26378;DHT22;14078;50.974;6.786;2022-11-18T07:04:34;8.30;99.90
26378;DHT22;14078;50.974;6.786;2022-11-18T07:07:04;8.30;99.90
26378;DHT22;14078;50.974;6.786;2022-11-18T07:09:30;8.40;99.90
26378;DHT22;14078;50.974;6.786;2022-11-18T07:11:57;8.50;99.90
26378;DHT22;14078;50.974;6.786;2022-11-18T07:14:23;8.50;99.90
26378;DHT22;14078;50.974;6.786;2022-11-18T07:16:51;8.60;99.90
26378;DHT22;14078;50.974;6.786;2022-11-18T07:19:17;8.80;99.90
26378;DHT22;14078;50.974;6.786;2022-11-18T07:21:44;8.90;99.90
26378;DHT22;14078;50.974;6.786;2022-11-18T07:24:11;8.80;99.90
26378;DHT22;14078;50.974;6.786;2022-11-18T07:26:38;8.90;99.90
26378;DHT22;14078;50.974;6.786;2022-11-18T07:29:04;8.90;99.90
26378;DHT22;14078;50.974;6.786;2022-11-18T07:31:31;8.90;99.90
26378;DHT22;14078;50.974;6.786;2022-11-18T07:34:00;8.90;99.90
26378;DHT22;14078;50.974;6.786;2022-11-18T07:36:27;8.90;99.90
26378;DHT22;14078;50.974;6.786;2022-11-18T07:38:54;8.90;99.90
26378;DHT22;14078;50.974;6.786;2022-11-18T07:41:21;8.90;99.90
26378;DHT22;14078;50.974;6.786;2022-11-18T07:43:48;8.80;99.90
26378;DHT22;14078;50.974;6.786;2022-11-18T07:46:16;8.80;99.90
26378;DHT22;14078;50.974;6.786;2022-11-18T07:48:43;8.80;99.90
26378;DHT22;14078;50.974;6.786;2022-11-18T07:51:11;8.80;99.90
26378;DHT22;14078;50.974;6.786;2022-11-18T07:53:38;8.90;99.90
26378;DHT22;14078;50.974;6.786;2022-11-18T07:56:05;8.90;99.90
26378;DHT22;14078;50.974;6.786;2022-11-18T07:58:32;8.80;99.90
26378;DHT22;14078;50.974;6.786;2022-11-18T08:00:58;8.90;99.90
26378;DHT22;14078;50.974;6.786;2022-11-18T08:03:31;9.00;99.90
26378;DHT22;14078;50.974;6.786;2022-11-18T08:05:57;8.90;99.90
26378;DHT22;14078;50.974;6.786;2022-11-18T08:08:25;9.00;99.90
26378;DHT22;14078;50.974;6.786;2022-11-18T08:10:54;9.20;99.90
26378;DHT22;14078;50.974;6.786;2022-11-18T08:13:20;9.30;99.90
26378;DHT22;14078;50.974;6.786;2022-11-18T08:15:47;9.40;99.90
26378;DHT22;14078;50.974;6.786;2022-11-18T08:18:13;9.50;99.90
26378;DHT22;14078;50.974;6.786;2022-11-18T08:20:40;9.50;99.90
26378;DHT22;14078;50.974;6.786;2022-11-18T08:23:06;9.50;99.90
26378;DHT22;14078;50.974;6.786;2022-11-18T08:25:34;9.40;99.90
26378;DHT22;14078;50.974;6.786;2022-11-18T08:28:01;9.40;99.90
26378;DHT22;14078;50.974;6.786;2022-11-18T08:30:27;9.40;99.90
26378;DHT22;14078;50.974;6.786;2022-11-18T08:32:54;9.50;99.90
26378;DHT22;14078;50.974;6.786;2022-11-18T08:35:20;9.50;99.90
26378;DHT22;14078;50.974;6.786;2022-11-18T08:37:47;9.40;99.90
26378;DHT22;14078;50.974;6.786;2022-11-18T08:40:14;9.50;99.90
26378;DHT22;14078;50.974;6.786;2022-11-18T08:42:42;9.40;99.90
26378;DHT22;14078;50.974;6.786;2022-11-18T08:45:08;9.40;99.90
26378;DHT22;14078;50.974;6.786;2022-11-18T08:47:35;9.50;99.90
26378;DHT22;14078;50.974;6.786;2022-11-18T08:50:02;9.60;99.90
26378;DHT22;14078;50.974;6.786;2022-11-18T08:52:29;9.80;99.90
26378;DHT22;14078;50.974;6.786;2022-11-18T08:54:55;10.00;99.90
26378;DHT22;14078;50.974;6.786;2022-11-18T08:57:22;10.00;99.90
26378;DHT22;14078;50.974;6.786;2022-11-18T08:59:50;10.00;99.90
26378;DHT22;14078;50.974;6.786;2022-11-18T09:02:18;10.10;99.90
26378;DHT22;14078;50.974;6.786;2022-11-18T09:04:45;10.30;99.90
26378;DHT22;14078;50.974;6.786;2022-11-18T09:07:12;10.30;99.90
26378;DHT22;14078;50.974;6.786;2022-11-18T09:09:38;10.40;99.90
26378;DHT22;14078;50.974;6.786;2022-11-18T09:12:05;10.40;99.90
26378;DHT22;14078;50.974;6.786;2022-11-18T09:14:33;10.30;99.90
26378;DHT22;14078;50.974;6.786;2022-11-18T09:17:01;10.40;99.90
26378;DHT22;14078;50.974;6.786;2022-11-18T09:19:27;10.40;99.90
26378;DHT22;14078;50.974;6.786;2022-11-18T09:21:54;10.50;99.90
26378;DHT22;14078;50.974;6.786;2022-11-18T09:24:21;10.40;99.90
26378;DHT22;14078;50.974;6.786;2022-11-18T09:26:47;10.40;99.90
26378;DHT22;14078;50.974;6.786;2022-11-18T09:29:14;10.30;99.90
26378;DHT22;14078;50.974;6.786;2022-11-18T09:31:41;10.30;99.90
26378;DHT22;14078;50.974;6.786;2022-11-18T09:34:08;10.40;99.90
26378;DHT22;14078;50.974;6.786;2022-11-18T09:36:35;10.60;99.90
26378;DHT22;14078;50.974;6.786;2022-11-18T09:39:02;10.50;99.90
26378;DHT22;14078;50.974;6.786;2022-11-18T09:41:33;10.50;99.90
26378;DHT22;14078;50.974;6.786;2022-11-18T09:44:04;10.50;99.90
26378;DHT22;14078;50.974;6.786;2022-11-18T09:46:37;10.40;99.90
26378;DHT22;14078;50.974;6.786;2022-11-18T09:49:12;10.50;99.90
26378;DHT22;14078;50.974;6.786;2022-11-18T09:51:41;10.60;99.90
26378;DHT22;14078;50.974;6.786;2022-11-18T09:54:09;10.50;99.90
26378;DHT22;14078;50.974;6.786;2022-11-18T09:56:36;10.70;99.90
26378;DHT22;14078;50.974;6.786;2022-11-18T09:59:04;10.90;99.90
26378;DHT22;14078;50.974;6.786;2022-11-18T10:01:30;10.90;99.90
26378;DHT22;14078;50.974;6.786;2022-11-18T10:03:57;10.90;99.90
26378;DHT22;14078;50.974;6.786;2022-11-18T10:06:25;11.00;99.90
26378;DHT22;14078;50.974;6.786;2022-11-18T10:08:56;10.90;99.90
26378;DHT22;14078;50.974;6.786;2022-11-18T10:11:25;11.00;99.90
26378;DHT22;14078;50.974;6.786;2022-11-18T10:13:54;11.20;99.90
26378;DHT22;14078;50.974;6.786;2022-11-18T10:16:28;11.30;99.90
26378;DHT22;14078;50.974;6.786;2022-11-18T10:18:58;11.30;99.70
26378;DHT22;14078;50.974;6.786;2022-11-18T10:21:34;11.40;99.90
26378;DHT22;14078;50.974;6.786;2022-11-18T10:24:03;11.40;99.90
26378;DHT22;14078;50.974;6.786;2022-11-18T10:26:32;11.40;99.90
26378;DHT22;14078;50.974;6.786;2022-11-18T10:28:59;11.50;94.00
26378;DHT22;14078;50.974;6.786;2022-11-18T10:31:26;11.50;93.50
26378;DHT22;14078;50.974;6.786;2022-11-18T10:33:57;11.50;93.50
26378;DHT22;14078;50.974;6.786;2022-11-18T10:36:25;11.50;95.80
26378;DHT22;14078;50.974;6.786;2022-11-18T10:39:05;11.40;95.30
26378;DHT22;14078;50.974;6.786;2022-11-18T10:41:36;11.50;87.30
26378;DHT22;14078;50.974;6.786;2022-11-18T10:44:03;11.60;86.70
26378;DHT22;14078;50.974;6.786;2022-11-18T10:46:30;11.60;84.10
26378;DHT22;14078;50.974;6.786;2022-11-18T10:49:09;11.60;89.60
26378;DHT22;14078;50.974;6.786;2022-11-18T10:51:37;11.70;88.60
26378;DHT22;14078;50.974;6.786;2022-11-18T10:54:07;11.80;91.00
26378;DHT22;14078;50.974;6.786;2022-11-18T10:56:42;11.80;83.00
26378;DHT22;14078;50.974;6.786;2022-11-18T10:59:10;12.00;75.20
26378;DHT22;14078;50.974;6.786;2022-11-18T11:01:38;11.90;77.40
26378;DHT22;14078;50.974;6.786;2022-11-18T11:04:11;11.90;81.40
26378;DHT22;14078;50.974;6.786;2022-11-18T11:06:40;12.10;64.60
26378;DHT22;14078;50.974;6.786;2022-11-18T11:09:09;12.10;65.70
26378;DHT22;14078;50.974;6.786;2022-11-18T11:11:41;12.20;65.20
26378;DHT22;14078;50.974;6.786;2022-11-18T11:14:21;12.20;60.50
26378;DHT22;14078;50.974;6.786;2022-11-18T11:16:59;12.20;54.50
26378;DHT22;14078;50.974;6.786;2022-11-18T11:19:28;12.30;53.10
26378;DHT22;14078;50.974;6.786;2022-11-18T11:21:56;12.20;46.90
26378;DHT22;14078;50.974;6.786;2022-11-18T11:24:25;12.20;54.30
26378;DHT22;14078;50.974;6.786;2022-11-18T11:26:53;12.20;55.20
26378;DHT22;14078;50.974;6.786;2022-11-18T11:29:25;12.00;69.90
26378;DHT22;14078;50.974;6.786;2022-11-18T11:31:56;12.00;60.00
26378;DHT22;14078;50.974;6.786;2022-11-18T11:34:27;11.90;66.00
26378;DHT22;14078;50.974;6.786;2022-11-18T11:36:56;11.90;68.00
26378;DHT22;14078;50.974;6.786;2022-11-18T11:39:33;11.90;74.60
26378;DHT22;14078;50.974;6.786;2022-11-18T11:42:03;11.90;74.70
26378;DHT22;14078;50.974;6.786;2022-11-18T11:44:34;11.90;78.90
26378;DHT22;14078;50.974;6.786;2022-11-18T11:47:09;11.80;87.40
26378;DHT22;14078;50.974;6.786;2022-11-18T11:49:57;11.70;95.60
26378;DHT22;14078;50.974;6.786;2022-11-18T11:52:31;11.70;97.10
26378;DHT22;14078;50.974;6.786;2022-11-18T11:55:03;11.60;78.70
26378;DHT22;14078;50.974;6.786;2022-11-18T11:57:37;11.60;88.80
26378;DHT22;14078;50.974;6.786;2022-11-18T12:00:07;11.80;88.10
26378;DHT22;14078;50.974;6.786;2022-11-18T12:02:39;11.70;93.40
26378;DHT22;14078;50.974;6.786;2022-11-18T12:05:14;11.80;95.70
26378;DHT22;14078;50.974;6.786;2022-11-18T12:07:44;12.10;84.00
26378;DHT22;14078;50.974;6.786;2022-11-18T12:10:18;12.10;76.60
26378;DHT22;14078;50.974;6.786;2022-11-18T12:12:49;12.10;77.30
26378;DHT22;14078;50.974;6.786;2022-11-18T12:15:19;12.10;79.10
26378;DHT22;14078;50.974;6.786;2022-11-18T12:17:53;12.10;84.00
26378;DHT22;14078;50.974;6.786;2022-11-18T12:20:39;12.10;78.00
26378;DHT22;14078;50.974;6.786;2022-11-18T12:23:13;11.90;65.70
26378;DHT22;14078;50.974;6.786;2022-11-18T12:25:49;12.20;62.00
26378;DHT22;14078;50.974;6.786;2022-11-18T12:28:21;12.30;53.90
26378;DHT22;14078;50.974;6.786;2022-11-18T12:30:48;12.20;61.60
26378;DHT22;14078;50.974;6.786;2022-11-18T12:33:14;12.10;75.60
26378;DHT22;14078;50.974;6.786;2022-11-18T12:35:45;11.90;75.90
26378;DHT22;14078;50.974;6.786;2022-11-18T12:38:26;11.90;83.50
26378;DHT22;14078;50.974;6.786;2022-11-18T12:40:54;12.00;91.20
26378;DHT22;14078;50.974;6.786;2022-11-18T12:48:52;12.10;64.70
26378;DHT22;14078;50.974;6.786;2022-11-18T12:57:00;12.40;65.30
26378;DHT22;14078;50.974;6.786;2022-11-18T12:59:28;12.50;50.50
26378;DHT22;14078;50.974;6.786;2022-11-18T13:04:43;12.70;42.70
26378;DHT22;14078;50.974;6.786;2022-11-18T13:07:10;12.70;33.70
26378;DHT22;14078;50.974;6.786;2022-11-18T13:09:57;12.70;37.70
26378;DHT22;14078;50.974;6.786;2022-11-18T13:12:25;12.70;22.30
26378;DHT22;14078;50.974;6.786;2022-11-18T13:14:52;12.80;21.90
26378;DHT22;14078;50.974;6.786;2022-11-18T13:17:37;12.70;27.90
26378;DHT22;14078;50.974;6.786;2022-11-18T13:20:24;12.60;28.10
26378;DHT22;14078;50.974;6.786;2022-11-18T13:22:56;12.70;28.90
26378;DHT22;14078;50.974;6.786;2022-11-18T13:25:40;12.60;38.40
26378;DHT22;14078;50.974;6.786;2022-11-18T13:28:15;12.60;30.10
26378;DHT22;14078;50.974;6.786;2022-11-18T13:30:46;12.50;55.00
26378;DHT22;14078;50.974;6.786;2022-11-18T13:33:14;12.50;38.00
26378;DHT22;14078;50.974;6.786;2022-11-18T13:35:41;12.60;30.50
26378;DHT22;14078;50.974;6.786;2022-11-18T13:38:21;12.60;36.00
26378;DHT22;14078;50.974;6.786;2022-11-18T13:40:48;12.50;28.30
26378;DHT22;14078;50.974;6.786;2022-11-18T13:43:31;12.50;26.50
26378;DHT22;14078;50.974;6.786;2022-11-18T13:45:57;12.40;29.80
26378;DHT22;14078;50.974;6.786;2022-11-18T13:48:25;12.40;35.80
26378;DHT22;14078;50.974;6.786;2022-11-18T13:50:52;12.30;54.70
26378;DHT22;14078;50.974;6.786;2022-11-18T13:53:24;12.30;43.10
26378;DHT22;14078;50.974;6.786;2022-11-18T13:55:54;12.30;45.80
26378;DHT22;14078;50.974;6.786;2022-11-18T13:58:32;12.30;39.20
26378;DHT22;14078;50.974;6.786;2022-11-18T14:01:00;12.40;41.20
26378;DHT22;14078;50.974;6.786;2022-11-18T14:03:28;12.30;54.20
26378;DHT22;14078;50.974;6.786;2022-11-18T14:05:57;12.30;47.60
26378;DHT22;14078;50.974;6.786;2022-11-18T14:08:24;12.50;30.40
26378;DHT22;14078;50.974;6.786;2022-11-18T14:10:52;12.40;42.90
26378;DHT22;14078;50.974;6.786;2022-11-18T14:13:23;12.30;49.00
26378;DHT22;14078;50.974;6.786;2022-11-18T14:15:51;12.30;50.60
26378;DHT22;14078;50.974;6.786;2022-11-18T14:18:19;12.20;58.90
26378;DHT22;14078;50.974;6.786;2022-11-18T14:20:50;12.20;74.30
26378;DHT22;14078;50.974;6.786;2022-11-18T14:23:16;12.40;46.10
26378;DHT22;14078;50.974;6.786;2022-11-18T14:25:43;12.50;36.70
26378;DHT22;14078;50.974;6.786;2022-11-18T14:28:11;12.40;56.90
26378;DHT22;14078;50.974;6.786;2022-11-18T14:30:38;12.50;42.00
26378;DHT22;14078;50.974;6.786;2022-11-18T14:33:17;12.40;39.20
26378;DHT22;14078;50.974;6.786;2022-11-18T14:35:47;12.40;49.40
26378;DHT22;14078;50.974;6.786;2022-11-18T14:38:15;12.30;52.10
26378;DHT22;14078;50.974;6.786;2022-11-18T14:40:41;12.30;49.90
26378;DHT22;14078;50.974;6.786;2022-11-18T14:43:08;12.30;48.60
26378;DHT22;14078;50.974;6.786;2022-11-18T14:45:36;12.20;62.90
26378;DHT22;14078;50.974;6.786;2022-11-18T14:48:03;12.10;62.90
26378;DHT22;14078;50.974;6.786;2022-11-18T14:50:31;12.10;54.60
26378;DHT22;14078;50.974;6.786;2022-11-18T14:52:57;12.20;52.50
26378;DHT22;14078;50.974;6.786;2022-11-18T14:55:24;12.10;53.70
26378;DHT22;14078;50.974;6.786;2022-11-18T14:57:50;12.00;74.40
26378;DHT22;14078;50.974;6.786;2022-11-18T15:00:17;11.90;72.80
26378;DHT22;14078;50.974;6.786;2022-11-18T15:02:44;11.80;75.10
26378;DHT22;14078;50.974;6.786;2022-11-18T15:05:11;11.80;74.10
26378;DHT22;14078;50.974;6.786;2022-11-18T15:07:38;11.70;89.30
26378;DHT22;14078;50.974;6.786;2022-11-18T15:10:05;11.60;99.90
26378;DHT22;14078;50.974;6.786;2022-11-18T15:12:32;11.50;99.90
26378;DHT22;14078;50.974;6.786;2022-11-18T15:14:58;11.40;99.90
26378;DHT22;14078;50.974;6.786;2022-11-18T15:17:25;11.30;99.90
26378;DHT22;14078;50.974;6.786;2022-11-18T15:19:51;11.30;99.90
26378;DHT22;14078;50.974;6.786;2022-11-18T15:22:18;11.30;99.90
26378;DHT22;14078;50.974;6.786;2022-11-18T15:24:45;11.30;96.90
26378;DHT22;14078;50.974;6.786;2022-11-18T15:27:12;11.20;99.90
26378;DHT22;14078;50.974;6.786;2022-11-18T15:29:39;11.10;99.90
26378;DHT22;14078;50.974;6.786;2022-11-18T15:32:05;11.20;99.90
26378;DHT22;14078;50.974;6.786;2022-11-18T15:34:32;11.10;99.90
26378;DHT22;14078;50.974;6.786;2022-11-18T15:36:58;11.00;99.90
26378;DHT22;14078;50.974;6.786;2022-11-18T15:39:25;10.90;99.90
26378;DHT22;14078;50.974;6.786;2022-11-18T15:41:53;10.90;99.90
26378;DHT22;14078;50.974;6.786;2022-11-18T15:44:19;10.80;99.90
26378;DHT22;14078;50.974;6.786;2022-11-18T15:46:46;10.90;99.90
26378;DHT22;14078;50.974;6.786;2022-11-18T15:49:13;10.90;99.90
26378;DHT22;14078;50.974;6.786;2022-11-18T15:51:41;10.90;99.90
26378;DHT22;14078;50.974;6.786;2022-11-18T15:54:08;10.80;99.90
26378;DHT22;14078;50.974;6.786;2022-11-18T15:56:34;10.80;99.90
26378;DHT22;14078;50.974;6.786;2022-11-18T15:59:04;10.90;99.90
26378;DHT22;14078;50.974;6.786;2022-11-18T16:01:31;10.90;99.90
26378;DHT22;14078;50.974;6.786;2022-11-18T16:03:58;11.00;99.90
26378;DHT22;14078;50.974;6.786;2022-11-18T16:06:25;10.90;99.90